Time;durP1;ratioP1;P1;durP2;ratioP2;P2;SDS_P1;SDS_P2;PMS_P1;PMS_P2;Temp;Humidity;BMP_temperature;BMP_pressure;BME280_temperature;BME280_humidity;BME280_pressure;Samples;Min_cycle;Max_cycle;Signal;HPM_P1;HPM_P2
2023/04/29 00:01:36;;;;;;;15.00;11.15;;;;;;;14.56;67.93;99906.69;5043900;28;20053;-58
2023/04/29 00:04:08;;;;;;;13.90;10.45;;;;;;;14.55;67.60;99910.69;5054894;28;20517;-58
2023/04/29 00:06:36;;;;;;;14.00;11.05;;;;;;;14.50;68.23;99913.69;5050530;28;20056;-58
2023/04/29 00:09:04;;;;;;;14.68;11.35;;;;;;;14.51;68.61;99915.34;5046459;28;20056;-58
2023/04/29 00:11:31;;;;;;;14.70;11.40;;;;;;;14.53;68.84;99912.16;5055159;28;20052;-58
2023/04/29 00:13:58;;;;;;;14.80;11.02;;;;;;;14.48;68.04;99910.41;5054591;28;20068;-57
2023/04/29 00:16:28;;;;;;;14.57;11.60;;;;;;;14.48;69.20;99913.22;5043136;28;20061;-58
2023/04/29 00:18:55;;;;;;;13.55;11.68;;;;;;;14.48;69.11;99923.63;5034725;28;20050;-58
2023/04/29 00:21:23;;;;;;;19.77;12.90;;;;;;;14.51;68.19;99909.72;5035133;28;20532;-58
2023/04/29 00:23:51;;;;;;;14.65;12.75;;;;;;;14.51;68.91;99926.53;5034973;28;20049;-57
2023/04/29 00:26:19;;;;;;;15.75;13.10;;;;;;;14.47;68.16;99920.00;5035434;28;20057;-58
2023/04/29 00:28:46;;;;;;;17.77;13.70;;;;;;;14.53;67.93;99924.19;5040198;28;20482;-58
2023/04/29 00:31:14;;;;;;;15.40;12.82;;;;;;;14.57;68.86;99933.56;5043786;28;20613;-58
2023/04/29 00:33:41;;;;;;;18.30;14.15;;;;;;;14.57;67.78;99930.75;5034348;28;20065;-58
2023/04/29 00:36:08;;;;;;;16.73;13.95;;;;;;;14.61;67.85;99933.66;5035303;28;20083;-58
2023/04/29 00:38:37;;;;;;;16.88;13.85;;;;;;;14.65;68.79;99942.97;5034832;28;20060;-57
2023/04/29 00:41:04;;;;;;;18.42;14.43;;;;;;;14.65;68.14;99939.38;5035785;28;20498;-57
2023/04/29 00:43:33;;;;;;;19.48;16.15;;;;;;;14.64;69.13;99934.94;5054582;28;20442;-57
2023/04/29 00:46:00;;;;;;;19.00;15.60;;;;;;;14.66;67.95;99944.63;5050711;28;20061;-57
2023/04/29 00:48:27;;;;;;;16.73;14.52;;;;;;;14.63;69.03;99941.72;5047618;28;20060;-57
2023/04/29 00:50:55;;;;;;;17.40;14.90;;;;;;;14.65;68.45;99945.78;5043279;28;20048;-57
2023/04/29 00:53:25;;;;;;;18.30;14.82;;;;;;;14.69;67.80;99943.91;5041020;28;20505;-58
2023/04/29 00:55:56;;;;;;;18.65;15.93;;;;;;;14.64;67.89;99946.97;5052759;28;20054;-57
2023/04/29 00:58:31;;;;;;;19.30;16.05;;;;;;;14.66;67.56;99943.78;5039211;28;20064;-58
2023/04/29 01:01:00;;;;;;;21.05;16.67;;;;;;;14.61;68.13;99956.91;5045470;28;20045;-58
2023/04/29 01:03:28;;;;;;;20.17;17.40;;;;;;;14.61;69.18;99956.91;5039516;28;20486;-59
2023/04/29 01:06:09;;;;;;;22.42;18.23;;;;;;;14.63;68.59;99956.53;5035073;28;20072;-58
2023/04/29 01:08:51;;;;;;;22.77;18.17;;;;;;;14.61;67.95;99962.53;5053829;28;20056;-59
2023/04/29 01:11:23;;;;;;;22.30;16.73;;;;;;;14.56;67.47;99968.34;5053800;28;20049;-57
2023/04/29 01:13:51;;;;;;;20.58;16.42;;;;;;;14.44;68.53;99967.53;5052292;28;20056;-58
2023/04/29 01:16:28;;;;;;;22.15;17.23;;;;;;;14.43;68.05;99966.72;5050345;28;20490;-57
2023/04/29 01:18:58;;;;;;;21.52;16.75;;;;;;;14.37;67.15;99977.34;5053734;28;20433;-57
2023/04/29 01:21:25;;;;;;;20.52;16.15;;;;;;;14.28;67.24;99978.63;5053394;28;20056;-58
2023/04/29 01:23:56;;;;;;;20.83;16.63;;;;;;;14.25;67.28;99976.53;5045279;28;20049;-57
2023/04/29 01:26:24;;;;;;;20.63;16.50;;;;;;;14.24;67.16;99977.69;5033600;28;20053;-58
2023/04/29 01:28:58;;;;;;;20.63;16.55;;;;;;;14.24;67.44;99984.16;5033609;28;20060;-58
2023/04/29 01:31:31;;;;;;;22.15;16.55;;;;;;;14.20;67.55;99981.22;5033925;28;20049;-58
2023/04/29 01:34:08;;;;;;;22.45;17.63;;;;;;;14.19;68.47;99982.41;5033627;28;20075;-58
2023/04/29 01:36:47;;;;;;;22.75;17.27;;;;;;;14.19;68.49;99982.41;5033863;28;20060;-58
2023/04/29 01:39:25;;;;;;;21.98;17.20;;;;;;;14.17;67.53;99990.34;5033365;28;20061;-57
2023/04/29 01:41:58;;;;;;;23.27;18.67;;;;;;;14.19;67.62;99985.19;5039790;28;20052;-58
2023/04/29 01:44:30;;;;;;;23.88;17.63;;;;;;;14.20;68.76;99992.41;5047151;28;20059;-58
2023/04/29 01:46:58;;;;;;;22.05;17.02;;;;;;;14.18;67.96;99991.97;5053380;28;20053;-58
2023/04/29 01:49:26;;;;;;;22.08;17.80;;;;;;;14.25;68.51;99987.75;5049533;28;20060;-58
2023/04/29 01:51:53;;;;;;;24.55;17.38;;;;;;;14.23;67.48;99985.28;5033508;28;20072;-58
2023/04/29 01:54:22;;;;;;;25.95;18.75;;;;;;;14.26;68.24;99990.22;5033514;28;20049;-58
2023/04/29 01:56:50;;;;;;;22.87;18.30;;;;;;;14.24;67.42;100002.91;5033353;28;20053;-58
2023/04/29 01:59:17;;;;;;;26.90;21.15;;;;;;;14.23;67.19;99993.69;5045585;28;20056;-58
2023/04/29 02:01:45;;;;;;;29.52;21.02;;;;;;;14.12;69.03;99995.34;5048362;28;20171;-58
2023/04/29 02:04:12;;;;;;;31.90;23.83;;;;;;;14.06;69.40;99994.75;5049680;28;20055;-58
2023/04/29 02:06:39;;;;;;;32.45;23.52;;;;;;;14.03;68.32;100009.47;5035888;28;20057;-58
2023/04/29 02:09:06;;;;;;;34.15;24.48;;;;;;;13.98;68.98;100001.28;5037839;28;20050;-58
2023/04/29 02:11:35;;;;;;;33.85;24.30;;;;;;;13.87;68.81;100005.72;5048380;28;20061;-58
2023/04/29 02:14:02;;;;;;;36.72;25.13;;;;;;;13.80;68.91;100004.31;5048417;28;20047;-58
2023/04/29 02:16:30;;;;;;;35.78;25.55;;;;;;;13.79;69.84;100010.25;5050931;28;20101;-58
2023/04/29 02:18:57;;;;;;;37.92;25.75;;;;;;;13.76;68.86;100013.75;5052647;28;20053;-58
2023/04/29 02:21:25;;;;;;;38.05;26.02;;;;;;;13.73;70.10;100018.06;5052839;28;20053;-58
2023/04/29 02:23:53;;;;;;;36.15;24.00;;;;;;;13.69;69.78;100019.09;5051518;28;20056;-58
2023/04/29 02:26:22;;;;;;;39.72;25.73;;;;;;;13.69;69.24;100022.72;5046914;28;20461;-58
2023/04/29 02:28:51;;;;;;;35.67;26.00;;;;;;;13.72;69.36;100016.41;5035753;28;20052;-57
2023/04/29 02:31:18;;;;;;;36.70;26.23;;;;;;;13.69;69.52;100024.69;5052873;28;20053;-58
2023/04/29 02:33:45;;;;;;;43.50;26.85;;;;;;;13.67;70.59;100032.59;5052899;28;20398;-58
2023/04/29 02:36:13;;;;;;;39.20;26.33;;;;;;;13.67;69.88;100027.00;5052749;28;20064;-58
2023/04/29 02:38:40;;;;;;;35.78;25.48;;;;;;;13.64;70.20;100033.31;5052317;28;20063;-58
2023/04/29 02:41:07;;;;;;;37.33;25.35;;;;;;;13.64;70.35;100033.31;5051921;28;20064;-58
2023/04/29 02:43:35;;;;;;;36.20;25.48;;;;;;;13.63;70.21;100035.31;5047606;28;20057;-58
2023/04/29 02:46:04;;;;;;;34.30;23.98;;;;;;;13.60;70.99;100035.97;5052784;28;20053;-58
2023/04/29 02:48:31;;;;;;;40.08;26.55;;;;;;;13.62;71.74;100036.44;5052634;28;20441;-58
2023/04/29 02:50:58;;;;;;;38.67;25.30;;;;;;;13.63;71.85;100040.06;5052126;28;20064;-58
2023/04/29 02:53:25;;;;;;;37.83;26.10;;;;;;;13.66;71.75;100040.19;5052433;28;20056;-58
2023/04/29 02:55:53;;;;;;;40.83;26.73;;;;;;;13.68;71.21;100045.44;5054346;28;20414;-58
2023/04/29 02:58:20;;;;;;;40.55;26.90;;;;;;;13.65;71.76;100057.31;5042344;28;20438;-58
2023/04/29 03:00:47;;;;;;;45.50;28.48;;;;;;;13.58;71.16;100055.91;5036770;28;20058;-58
2023/04/29 03:03:16;;;;;;;46.75;28.83;;;;;;;13.48;70.92;100059.16;5036385;28;20045;-58
2023/04/29 03:05:43;;;;;;;37.80;24.23;;;;;;;13.42;72.18;100054.94;5036865;28;20053;-58
2023/04/29 03:08:10;;;;;;;38.70;23.98;;;;;;;13.27;72.25;100064.75;5036502;28;20419;-58
2023/04/29 03:10:38;;;;;;;39.38;23.90;;;;;;;13.12;71.72;100063.41;5050948;28;20053;-58
2023/04/29 03:13:05;;;;;;;39.50;24.98;;;;;;;13.03;71.84;100059.03;5043522;28;20056;-58
2023/04/29 03:15:33;;;;;;;42.58;27.33;;;;;;;12.97;72.95;100058.41;5051784;28;20056;-58
2023/04/29 03:18:00;;;;;;;45.92;26.65;;;;;;;12.98;72.50;100072.06;5046003;28;20057;-58
2023/04/29 03:20:29;;;;;;;50.08;30.20;;;;;;;12.98;71.83;100080.44;5055431;28;20056;-58
2023/04/29 03:22:56;;;;;;;46.38;28.08;;;;;;;12.94;73.22;100084.25;5047402;28;20093;-58
2023/04/29 03:25:24;;;;;;;44.50;27.88;;;;;;;12.94;72.49;100078.66;5037358;28;20061;-58
2023/04/29 03:27:51;;;;;;;40.45;26.50;;;;;;;12.93;73.40;100086.22;5036211;28;20076;-58
2023/04/29 03:30:18;;;;;;;44.10;27.63;;;;;;;12.88;73.30;100085.63;5035777;28;20540;-58
2023/04/29 03:32:45;;;;;;;44.33;26.52;;;;;;;12.90;73.37;100088.91;5053899;28;20413;-58
2023/04/29 03:35:12;;;;;;;40.55;24.33;;;;;;;12.87;73.50;100079.22;5050796;28;20053;-58
2023/04/29 03:37:43;;;;;;;40.67;24.58;;;;;;;12.82;73.38;100085.00;5035999;28;20061;-57
2023/04/29 03:40:11;;;;;;;36.67;23.42;;;;;;;12.85;72.39;100081.53;5035633;28;20041;-57
2023/04/29 03:42:41;;;;;;;32.95;21.60;;;;;;;12.83;73.12;100089.44;5038029;28;20060;-57
2023/04/29 03:45:11;;;;;;;30.13;20.33;;;;;;;12.75;72.26;100088.31;5052344;28;20052;-57
2023/04/29 03:47:39;;;;;;;31.38;19.60;;;;;;;12.77;72.78;100096.38;5041435;28;20060;-57
2023/04/29 03:50:08;;;;;;;27.38;17.77;;;;;;;12.69;72.36;100103.66;5035363;28;20414;-57
2023/04/29 03:52:36;;;;;;;28.67;18.75;;;;;;;12.70;72.78;100099.69;5050659;28;20056;-58
2023/04/29 03:55:06;;;;;;;26.63;17.73;;;;;;;12.68;72.34;100102.03;5035203;28;20060;-58
2023/04/29 03:57:33;;;;;;;25.55;16.92;;;;;;;12.69;71.94;100092.47;5040382;28;20332;-58
2023/04/29 04:00:00;;;;;;;24.13;16.60;;;;;;;12.68;72.40;100103.97;5054624;28;20063;-58
2023/04/29 04:02:28;;;;;;;24.83;16.58;;;;;;;12.64;72.20;100105.81;5044788;28;20064;-58
2023/04/29 04:04:55;;;;;;;25.88;16.58;;;;;;;12.62;73.25;100105.31;5046589;28;20050;-58
2023/04/29 04:07:22;;;;;;;24.60;17.38;;;;;;;12.64;72.57;100103.84;5048282;28;20052;-58
2023/04/29 04:09:50;;;;;;;24.10;18.08;;;;;;;12.70;72.80;100112.84;5043566;28;20052;-58
2023/04/29 04:12:18;;;;;;;23.17;17.25;;;;;;;12.72;72.83;100116.13;5037198;28;20482;-58
2023/04/29 04:14:46;;;;;;;22.85;16.10;;;;;;;12.73;71.96;100117.78;5050755;28;20045;-58
2023/04/29 04:17:14;;;;;;;26.73;18.52;;;;;;;12.76;72.20;100125.47;5036798;28;20061;-58
2023/04/29 04:19:42;;;;;;;23.05;15.80;;;;;;;12.76;72.47;100133.84;5037261;28;20052;-58
2023/04/29 04:22:12;;;;;;;25.63;17.60;;;;;;;12.77;72.85;100127.94;5052718;28;20049;-58
2023/04/29 04:24:39;;;;;;;23.20;16.63;;;;;;;12.77;72.35;100129.91;5042655;28;20521;-58
2023/04/29 04:27:06;;;;;;;25.65;18.15;;;;;;;12.77;71.81;100133.53;5051385;28;20053;-58
2023/04/29 04:29:35;;;;;;;29.45;19.33;;;;;;;12.78;72.44;100135.16;5036911;28;20695;-58
2023/04/29 04:32:02;;;;;;;26.45;17.80;;;;;;;12.79;72.97;100141.56;5047538;28;20405;-58
2023/04/29 04:34:32;;;;;;;27.45;17.95;;;;;;;12.80;72.48;100140.41;5046129;28;20048;-58
2023/04/29 04:37:00;;;;;;;23.83;17.20;;;;;;;12.81;72.59;100142.06;5049473;28;20049;-58
2023/04/29 04:39:27;;;;;;;23.33;17.48;;;;;;;12.82;71.86;100145.66;5044693;28;20053;-58
2023/04/29 04:41:54;;;;;;;26.02;17.67;;;;;;;12.75;72.27;100149.81;5038431;28;20053;-58
2023/04/29 04:44:22;;;;;;;22.50;15.52;;;;;;;12.80;72.69;100154.38;5042431;28;20049;-58
2023/04/29 04:46:51;;;;;;;24.25;16.58;;;;;;;12.73;72.62;100156.91;5039235;28;20049;-58
2023/04/29 04:49:18;;;;;;;24.42;17.08;;;;;;;12.77;72.45;100155.06;5037698;28;20505;-58
2023/04/29 04:51:46;;;;;;;24.33;18.02;;;;;;;12.76;72.03;100159.00;5036131;28;20068;-58
2023/04/29 04:54:13;;;;;;;27.45;19.08;;;;;;;12.77;72.04;100163.44;5040457;28;20053;-57
2023/04/29 04:56:40;;;;;;;26.48;18.92;;;;;;;12.73;72.47;100165.28;5042634;28;20056;-58
2023/04/29 04:59:08;;;;;;;29.65;19.55;;;;;;;12.74;72.39;100172.50;5043350;28;20049;-58
2023/04/29 05:01:35;;;;;;;25.45;18.27;;;;;;;12.74;72.66;100178.09;5043281;28;20057;-58
2023/04/29 05:04:04;;;;;;;25.40;17.67;;;;;;;12.76;71.62;100181.38;5054178;28;20056;-58
2023/04/29 05:06:31;;;;;;;25.80;18.50;;;;;;;12.74;71.72;100178.09;5053445;28;20060;-58
2023/04/29 05:08:58;;;;;;;25.83;18.10;;;;;;;12.70;71.91;100169.53;5042605;28;20049;-58
2023/04/29 05:11:25;;;;;;;25.25;17.42;;;;;;;12.72;72.80;100184.00;5049563;28;20057;-58
2023/04/29 05:13:53;;;;;;;23.35;17.63;;;;;;;12.74;72.71;100189.25;5038193;28;20524;-58
2023/04/29 05:16:20;;;;;;;23.98;17.67;;;;;;;12.75;72.80;100188.94;5039061;28;20124;-58
2023/04/29 05:18:47;;;;;;;25.40;17.58;;;;;;;12.72;72.07;100184.00;5039572;28;20049;-58
2023/04/29 05:21:16;;;;;;;22.50;16.75;;;;;;;12.72;72.25;100183.19;5042805;28;20485;-58
2023/04/29 05:23:43;;;;;;;25.70;17.52;;;;;;;12.72;72.16;100188.78;5051796;28;20060;-58
2023/04/29 05:26:10;;;;;;;22.55;16.33;;;;;;;12.74;71.47;100189.25;5049527;28;20053;-58
2023/04/29 05:28:38;;;;;;;23.38;16.88;;;;;;;12.71;71.52;100192.75;5043569;28;20053;-58
2023/04/29 05:31:06;;;;;;;23.88;17.15;;;;;;;12.78;71.35;100188.25;5037537;28;20045;-58
2023/04/29 05:33:33;;;;;;;23.13;16.27;;;;;;;12.83;71.18;100187.25;5037726;28;20082;-58
2023/04/29 05:36:01;;;;;;;23.50;16.02;;;;;;;12.85;71.02;100193.34;5039939;28;20057;-58
2023/04/29 05:38:32;;;;;;;22.25;16.52;;;;;;;12.91;71.48;100191.16;5051094;28;20498;-58
2023/04/29 05:40:59;;;;;;;24.17;18.27;;;;;;;12.98;71.73;100197.06;5050295;28;20053;-58
2023/04/29 05:43:26;;;;;;;22.55;17.35;;;;;;;13.04;70.56;100201.28;5047520;28;20053;-58
2023/04/29 05:45:54;;;;;;;23.63;18.45;;;;;;;13.10;70.79;100199.94;5051722;28;20053;-58
2023/04/29 05:48:22;;;;;;;24.33;17.52;;;;;;;13.14;69.70;100205.66;5041411;28;20049;-58
2023/04/29 05:50:50;;;;;;;23.85;18.65;;;;;;;13.15;70.67;100213.72;5030783;28;20478;-58
2023/04/29 05:53:17;;;;;;;24.17;18.75;;;;;;;13.19;70.11;100225.06;5046353;28;20044;-58
2023/04/29 05:55:46;;;;;;;24.92;19.40;;;;;;;13.26;70.04;100230.91;5033692;28;20425;-58
2023/04/29 05:58:13;;;;;;;23.60;17.33;;;;;;;13.26;69.71;100230.09;5033806;28;20057;-58
2023/04/29 06:00:42;;;;;;;23.33;18.10;;;;;;;13.32;70.46;100226.81;5033112;28;20053;-58
2023/04/29 06:03:10;;;;;;;21.10;17.30;;;;;;;13.36;69.03;100235.34;5033003;28;20057;-58
2023/04/29 06:05:38;;;;;;;24.75;19.08;;;;;;;13.40;69.90;100236.31;5033318;28;20486;-58
2023/04/29 06:08:05;;;;;;;22.83;16.77;;;;;;;13.46;69.37;100246.16;5032607;28;20079;-58
2023/04/29 06:10:33;;;;;;;23.95;18.88;;;;;;;13.50;69.55;100247.09;5032842;28;20053;-58
2023/04/29 06:13:01;;;;;;;24.20;19.50;;;;;;;13.54;68.49;100247.22;5049287;28;20053;-58
2023/04/29 06:15:29;;;;;;;23.52;18.40;;;;;;;13.63;68.16;100250.78;5047828;28;20063;-58
2023/04/29 06:17:56;;;;;;;23.15;18.98;;;;;;;13.77;67.35;100247.72;5033628;28;20053;-58
2023/04/29 06:20:23;;;;;;;22.35;17.27;;;;;;;13.82;67.74;100258.72;5032685;28;20402;-57
2023/04/29 06:22:50;;;;;;;22.67;18.02;;;;;;;13.87;68.44;100260.47;5048034;28;20049;-58
2023/04/29 06:25:18;;;;;;;20.98;17.25;;;;;;;13.93;67.93;100259.13;5052437;28;20045;-58
2023/04/29 06:27:45;;;;;;;22.25;17.83;;;;;;;14.00;67.13;100270.56;5052552;28;20064;-58
2023/04/29 06:30:13;;;;;;;21.45;16.95;;;;;;;14.07;67.66;100268.06;5046377;28;20414;-58
2023/04/29 06:32:41;;;;;;;20.25;16.35;;;;;;;14.17;66.51;100264.84;5039710;28;20049;-58
2023/04/29 06:35:09;;;;;;;22.85;17.70;;;;;;;14.35;65.49;100264.66;5052441;28;20498;-58
2023/04/29 06:37:36;;;;;;;19.60;15.88;;;;;;;14.47;65.67;100270.31;5052730;28;20410;-58
2023/04/29 06:40:03;;;;;;;18.92;14.73;;;;;;;14.54;65.73;100266.94;5042481;28;20056;-58
2023/04/29 06:42:31;;;;;;;17.95;15.00;;;;;;;14.65;65.07;100270.97;5041125;28;20053;-58
2023/04/29 06:44:58;;;;;;;20.33;15.48;;;;;;;14.66;64.17;100280.19;5042833;28;20055;-60
2023/04/29 06:47:26;;;;;;;20.27;16.02;;;;;;;14.64;64.01;100288.16;5044420;28;20414;-59
2023/04/29 06:49:54;;;;;;;16.08;14.10;;;;;;;14.60;64.58;100291.63;5039918;28;20055;-59
2023/04/29 06:52:21;;;;;;;18.02;14.85;;;;;;;14.52;62.91;100291.69;5042155;28;20410;-58
2023/04/29 06:54:48;;;;;;;18.60;15.07;;;;;;;14.43;63.70;100293.78;5041241;28;20050;-58
2023/04/29 06:57:16;;;;;;;18.27;15.90;;;;;;;14.38;63.69;100304.03;5035009;28;20049;-58
2023/04/29 06:59:43;;;;;;;19.17;15.77;;;;;;;14.32;64.26;100298.97;5031090;28;20049;-58
2023/04/29 07:02:10;;;;;;;19.75;16.55;;;;;;;14.28;63.92;100310.06;5030760;28;20057;-58
2023/04/29 07:04:39;;;;;;;22.20;17.60;;;;;;;14.28;64.15;100312.00;5032542;28;20060;-58
2023/04/29 07:07:07;;;;;;;19.45;16.38;;;;;;;14.24;64.52;100313.88;5036478;28;20053;-58
2023/04/29 07:09:34;;;;;;;19.70;16.52;;;;;;;14.18;63.84;100319.69;5035519;28;20509;-59
2023/04/29 07:12:03;;;;;;;19.77;17.08;;;;;;;14.17;65.26;100320.88;5035651;28;20138;-59
2023/04/29 07:14:30;;;;;;;19.85;16.10;;;;;;;14.09;64.33;100327.34;5043474;28;20417;-60
2023/04/29 07:16:58;;;;;;;19.02;16.92;;;;;;;14.06;65.60;100330.81;5034901;28;20060;-60
2023/04/29 07:19:25;;;;;;;21.45;17.60;;;;;;;13.99;64.56;100331.38;5039779;28;20049;-60
2023/04/29 07:21:53;;;;;;;20.17;16.55;;;;;;;13.97;65.24;100346.88;5046347;28;20055;-59
2023/04/29 07:24:22;;;;;;;21.10;16.88;;;;;;;14.01;65.52;100339.44;5047943;28;20052;-60
2023/04/29 07:26:49;;;;;;;20.58;17.20;;;;;;;13.97;65.49;100352.47;5052037;28;20406;-59
2023/04/29 07:29:16;;;;;;;19.15;16.50;;;;;;;13.92;66.58;100347.06;5044550;28;20056;-59
2023/04/29 07:31:44;;;;;;;21.35;16.90;;;;;;;13.72;66.17;100357.91;5047082;28;20537;-59
2023/04/29 07:34:11;;;;;;;20.02;16.15;;;;;;;13.67;66.97;100362.88;5045438;28;20058;-60
2023/04/29 07:36:38;;;;;;;19.98;16.05;;;;;;;13.65;67.37;100371.63;5036088;28;20064;-60
2023/04/29 07:39:07;;;;;;;20.67;16.27;;;;;;;13.49;66.39;100367.75;5043981;28;20478;-60
2023/04/29 07:41:35;;;;;;;18.80;15.25;;;;;;;13.37;67.30;100374.88;5042514;28;20058;-59
2023/04/29 07:44:02;;;;;;;21.15;17.38;;;;;;;13.35;67.28;100377.19;5044721;28;20067;-59
2023/04/29 07:46:30;;;;;;;18.50;15.18;;;;;;;13.35;67.56;100379.97;5047422;28;20057;-59
2023/04/29 07:48:57;;;;;;;22.08;17.98;;;;;;;13.34;67.51;100386.75;5045132;28;20053;-59
2023/04/29 07:51:27;;;;;;;22.52;19.85;;;;;;;13.28;68.11;100390.84;5039877;28;20080;-59
2023/04/29 07:53:55;;;;;;;23.20;18.63;;;;;;;13.27;68.69;100385.56;5050751;28;20048;-59
2023/04/29 07:56:23;;;;;;;24.88;18.70;;;;;;;13.16;69.02;100396.31;5052846;28;20053;-60
2023/04/29 07:58:50;;;;;;;25.80;18.10;;;;;;;13.20;68.35;100400.09;5047274;28;20508;-58
2023/04/29 08:01:18;;;;;;;24.02;19.35;;;;;;;13.20;69.60;100406.50;5050032;28;20155;-59
2023/04/29 08:03:45;;;;;;;22.23;16.70;;;;;;;13.23;68.61;100404.19;5048922;28;20482;-59
2023/04/29 08:06:12;;;;;;;21.98;17.85;;;;;;;13.22;69.39;100408.97;5039944;28;20041;-59
2023/04/29 08:08:39;;;;;;;25.80;19.40;;;;;;;13.27;69.44;100414.41;5047080;28;20049;-59
2023/04/29 08:11:07;;;;;;;25.25;18.67;;;;;;;13.27;69.64;100414.41;5043351;28;20053;-59
2023/04/29 08:13:36;;;;;;;25.02;19.50;;;;;;;13.32;69.07;100422.63;5047196;28;20068;-59
2023/04/29 08:16:03;;;;;;;25.57;22.00;;;;;;;13.39;69.26;100416.50;5047652;28;20475;-59
2023/04/29 08:18:30;;;;;;;31.27;23.40;;;;;;;13.45;68.83;100422.75;5049091;28;20487;-59
2023/04/29 08:21:04;;;;;;;29.77;21.15;;;;;;;13.43;69.92;100417.47;5041058;28;20053;-60
2023/04/29 08:23:31;;;;;;;28.52;21.15;;;;;;;13.46;70.49;100424.38;5039695;28;20041;-56
2023/04/29 08:25:59;;;;;;;24.15;19.52;;;;;;;13.50;69.40;100425.34;5036492;28;20057;-56
2023/04/29 08:28:26;;;;;;;22.20;18.90;;;;;;;13.49;70.36;100432.13;5045058;28;20049;-57
2023/04/29 08:30:55;;;;;;;24.25;19.25;;;;;;;13.49;69.79;100424.53;5039276;28;20053;-57
2023/04/29 08:33:22;;;;;;;26.20;20.40;;;;;;;13.50;69.65;100428.16;5042862;28;20061;-57
2023/04/29 08:36:02;;;;;;;26.73;21.85;;;;;;;13.52;70.05;100428.63;5034911;28;20049;-57
2023/04/29 08:38:29;;;;;;;29.98;22.95;;;;;;;13.48;69.75;100436.06;5039342;28;20086;-57
2023/04/29 08:40:57;;;;;;;32.38;24.70;;;;;;;13.36;68.66;100432.00;5035028;28;20529;-57
2023/04/29 08:43:25;;;;;;;37.42;25.95;;;;;;;13.27;69.97;100447.13;5049525;28;20049;-58
2023/04/29 08:45:53;;;;;;;42.55;30.90;;;;;;;13.23;70.15;100449.78;5045925;28;20088;-57
2023/04/29 08:48:22;;;;;;;40.08;28.83;;;;;;;13.23;69.77;100448.94;5047461;28;20494;-57
2023/04/29 08:50:49;;;;;;;41.47;30.17;;;;;;;13.23;69.63;100444.19;5048482;28;20053;-57
2023/04/29 08:53:17;;;;;;;42.30;30.88;;;;;;;13.28;69.51;100452.38;5041604;28;20060;-57
2023/04/29 08:55:46;;;;;;;40.72;28.90;;;;;;;13.36;70.44;100454.38;5051509;28;20060;-57
2023/04/29 08:58:15;;;;;;;42.53;31.25;;;;;;;13.44;69.44;100460.25;5052788;28;20053;-58
2023/04/29 09:00:43;;;;;;;36.17;27.40;;;;;;;13.47;69.09;100465.19;5046750;28;20052;-58
2023/04/29 09:03:17;;;;;;;39.42;28.65;;;;;;;13.52;69.61;100471.44;5037689;28;20056;-58
2023/04/29 09:05:49;;;;;;;36.42;27.60;;;;;;;13.50;69.45;100467.31;5034483;28;20060;-58
2023/04/29 09:08:18;;;;;;;34.55;24.50;;;;;;;13.48;69.00;100462.06;5045027;28;20053;-58
2023/04/29 09:10:45;;;;;;;40.17;27.73;;;;;;;13.50;68.52;100465.38;5037447;28;20048;-58
2023/04/29 09:13:23;;;;;;;38.78;26.75;;;;;;;13.45;69.14;100470.31;5046319;28;20824;-58
2023/04/29 09:15:51;;;;;;;42.85;29.15;;;;;;;13.45;69.70;100467.50;5039414;28;20057;-58
2023/04/29 09:18:43;;;;;;;45.35;30.13;;;;;;;13.47;68.90;100480.00;5050882;28;20067;-58
2023/04/29 09:21:17;;;;;;;42.58;29.45;;;;;;;13.52;68.95;100479.84;5051546;28;20056;-58
2023/04/29 09:23:45;;;;;;;43.65;28.85;;;;;;;13.60;69.51;100483.75;5034059;28;20076;-58
2023/04/29 09:26:12;;;;;;;42.80;28.05;;;;;;;13.65;69.83;100485.53;5038676;28;20049;-58
2023/04/29 09:28:42;;;;;;;45.97;29.85;;;;;;;13.64;69.42;100490.31;5043712;28;20049;-58
2023/04/29 09:31:10;;;;;;;42.00;29.77;;;;;;;13.67;69.45;100491.63;5041358;28;20060;-58
2023/04/29 09:33:51;;;;;;;48.22;32.00;;;;;;;13.72;68.16;100489.47;5041347;28;20057;-58
2023/04/29 09:36:44;;;;;;;47.65;31.92;;;;;;;13.67;68.88;100491.63;5049946;28;20045;-59
2023/04/29 09:39:14;;;;;;;47.38;31.48;;;;;;;13.64;68.36;100490.31;5033956;28;20054;-58
2023/04/29 09:41:56;;;;;;;46.85;30.73;;;;;;;13.69;68.33;100504.16;5034697;28;20057;-58
2023/04/29 09:44:25;;;;;;;43.83;30.65;;;;;;;13.78;68.22;100507.72;5033817;28;20060;-58
2023/04/29 09:46:56;;;;;;;50.65;31.65;;;;;;;13.85;68.99;100509.19;5040783;28;20068;-58
2023/04/29 09:49:25;;;;;;;47.13;30.45;;;;;;;13.87;69.12;100512.47;5048051;28;20403;-58
2023/04/29 09:51:54;;;;;;;42.17;30.40;;;;;;;13.95;68.74;100514.41;5051199;28;20060;-58
2023/04/29 09:54:23;;;;;;;43.83;29.70;;;;;;;14.00;67.82;100506.63;5051462;28;20060;-58
2023/04/29 09:56:51;;;;;;;44.78;31.48;;;;;;;13.99;67.59;100521.00;5052108;28;20059;-58
2023/04/29 09:59:19;;;;;;;44.00;30.48;;;;;;;13.95;68.18;100511.63;5043447;28;20057;-58
2023/04/29 10:01:49;;;;;;;41.97;29.58;;;;;;;13.93;67.68;100520.34;5049560;28;20049;-57
2023/04/29 10:04:17;;;;;;;47.08;32.35;;;;;;;13.97;66.91;100517.72;5049796;28;20060;-56
2023/04/29 10:06:46;;;;;;;47.42;32.35;;;;;;;13.96;67.04;100521.66;5047483;28;20430;-56
2023/04/29 10:09:19;;;;;;;46.75;32.63;;;;;;;14.02;66.84;100520.31;5031881;28;20053;-56
2023/04/29 10:11:48;;;;;;;45.47;31.83;;;;;;;14.35;67.52;100523.25;5038089;28;20049;-57
2023/04/29 10:14:17;;;;;;;41.97;28.80;;;;;;;14.79;66.06;100523.00;5042503;28;20156;-57
2023/04/29 10:16:48;;;;;;;40.97;30.30;;;;;;;15.25;65.23;100523.13;5040435;28;20053;-57
2023/04/29 10:19:25;;;;;;;43.35;27.33;;;;;;;15.77;63.65;100523.41;5035067;28;20414;-57
2023/04/29 10:21:54;;;;;;;39.97;28.17;;;;;;;16.20;62.08;100516.41;5047207;28;20406;-57
2023/04/29 10:24:25;;;;;;;39.67;27.00;;;;;;;16.60;60.86;100518.47;5048040;28;20056;-57
2023/04/29 10:26:55;;;;;;;38.22;26.85;;;;;;;16.88;60.08;100526.16;5045475;28;21641;-58
2023/04/29 10:29:25;;;;;;;32.55;25.80;;;;;;;17.01;59.53;100519.34;5035395;28;20049;-57
2023/04/29 10:31:53;;;;;;;32.53;25.92;;;;;;;17.02;58.85;100523.78;5032056;28;20058;-56
2023/04/29 10:34:22;;;;;;;33.47;26.33;;;;;;;16.93;58.56;100520.31;5048673;28;20057;-57
2023/04/29 10:36:49;;;;;;;36.47;27.52;;;;;;;16.99;58.10;100516.06;5036670;28;20054;-58
2023/04/29 10:39:27;;;;;;;34.65;27.00;;;;;;;17.17;58.17;100518.56;5048508;28;20053;-56
2023/04/29 10:41:56;;;;;;;29.70;23.98;;;;;;;17.55;57.32;100515.19;5052014;28;20398;-57
2023/04/29 10:44:24;;;;;;;30.33;24.48;;;;;;;17.78;56.42;100520.25;5045966;28;20379;-57
2023/04/29 10:47:19;;;;;;;27.88;22.55;;;;;;;18.15;54.79;100529.28;5045039;28;20049;-57
2023/04/29 10:50:03;;;;;;;27.13;22.67;;;;;;;18.32;54.20;100516.81;5041140;28;20053;-57
2023/04/29 10:52:30;;;;;;;27.90;22.60;;;;;;;18.62;54.53;100517.09;5031816;28;20064;-57
2023/04/29 10:55:03;;;;;;;27.23;23.35;;;;;;;18.94;53.57;100527.50;5033899;28;20485;-57
2023/04/29 10:57:31;;;;;;;30.48;25.42;;;;;;;19.27;51.79;100524.97;5051969;28;20413;-57
2023/04/29 10:59:58;;;;;;;23.95;21.00;;;;;;;19.72;50.29;100519.81;5041804;28;20049;-57
2023/04/29 11:02:26;;;;;;;26.20;22.52;;;;;;;20.16;49.42;100525.03;5046313;28;20056;-57
2023/04/29 11:05:09;;;;;;;22.55;19.98;;;;;;;20.15;47.93;100531.84;5039163;28;20045;-58
2023/04/29 11:07:37;;;;;;;27.17;23.00;;;;;;;20.15;48.05;100531.84;5037457;28;20487;-57
2023/04/29 11:10:07;;;;;;;24.30;20.63;;;;;;;19.98;48.73;100540.88;5045381;28;20489;-58
2023/04/29 11:12:34;;;;;;;23.35;20.67;;;;;;;19.68;48.98;100524.56;5046940;28;20068;-57
2023/04/29 11:15:03;;;;;;;24.27;20.42;;;;;;;19.60;48.78;100539.75;5044652;28;20064;-57
2023/04/29 11:17:36;;;;;;;22.52;18.23;;;;;;;19.98;47.41;100532.38;5052326;28;20052;-57
2023/04/29 11:20:04;;;;;;;20.08;17.25;;;;;;;20.26;46.67;100520.72;5053980;28;20049;-57